Cumberland Gap, Tennessee
Current Conditions -  °F | °C
As of 10:35 PM on Monday 26 Jan 2015 (Local Time) from K1A6 Reporting Station
Overcast Overcast  
Wind Chill: 30°   Ceiling: 2400
Heat Index: 30°   Visibility: 10mi
Dew Point: 24°   Wind: 0mph
Humidity: 79%   Direction: NA
Pressure: 29.93"   Gusts: NA
Location:  36.6°N, 83.67°W
Report Text: K1A6 270335Z AUTO 00000KT 10SM OVC024 M01/M04 A2993 RMK AO2 T10091042
Loading
Personal Weather Stations






























Interactive Weather Map New forecast layout! Learn more

10-Day Weather Forecast

Advertisements
Track Severe Weather on mobile